createdAt,value
2019-05-30T00:02:09.927Z,1.17
2019-05-30T00:04:39.546Z,0.80
2019-05-30T00:07:11.122Z,1.60
2019-05-30T00:09:42.082Z,0.80
2019-05-30T00:12:11.684Z,1.70
2019-05-30T00:14:41.290Z,1.10
2019-05-30T00:17:10.991Z,1.80
2019-05-30T00:19:40.665Z,2.00
2019-05-30T00:22:10.366Z,0.87
2019-05-30T00:24:40.073Z,2.13
2019-05-30T00:27:09.699Z,1.03
2019-05-30T00:29:39.382Z,0.90
2019-05-30T00:32:09.047Z,1.03
2019-05-30T00:34:38.589Z,2.70
2019-05-30T00:37:09.114Z,1.57
2019-05-30T00:39:40.523Z,1.50
2019-05-30T00:42:10.178Z,1.97
2019-05-30T00:44:39.735Z,1.60
2019-05-30T00:47:09.364Z,1.03
2019-05-30T00:49:40.583Z,4.00
2019-05-30T00:52:10.227Z,0.93
2019-05-30T00:54:39.865Z,1.30
2019-05-30T00:57:09.452Z,1.27
2019-05-30T00:59:39.054Z,1.07
2019-05-30T01:02:08.708Z,1.83
2019-05-30T01:04:38.359Z,3.00
2019-05-30T01:07:07.957Z,1.50
2019-05-30T01:09:37.595Z,0.93
2019-05-30T01:12:08.842Z,0.80
2019-05-30T01:14:38.493Z,1.93
2019-05-30T01:17:08.099Z,0.80
2019-05-30T01:19:37.815Z,1.77
2019-05-30T01:22:07.721Z,1.63
2019-05-30T01:24:37.901Z,1.53
2019-05-30T01:27:07.754Z,1.87
2019-05-30T01:29:37.363Z,1.33
2019-05-30T01:32:24.934Z,1.47
2019-05-30T01:34:54.546Z,0.97
2019-05-30T01:37:26.061Z,0.80
2019-05-30T01:39:55.986Z,1.93
2019-05-30T01:42:25.675Z,1.33
2019-05-30T01:44:56.256Z,2.70
2019-05-30T01:47:26.077Z,2.57
2019-05-30T01:49:55.765Z,2.30
2019-05-30T01:52:25.371Z,2.40
2019-05-30T01:54:56.699Z,1.27
2019-05-30T01:57:26.295Z,1.23
2019-05-30T01:59:55.895Z,1.30
2019-05-30T02:02:25.515Z,1.13
2019-05-30T02:04:55.099Z,0.70
2019-05-30T02:07:24.745Z,2.10
2019-05-30T02:09:54.363Z,2.20
2019-05-30T02:12:24.017Z,1.63
2019-05-30T02:14:53.619Z,1.00
2019-05-30T02:17:23.227Z,2.20
2019-05-30T02:19:52.874Z,1.13
2019-05-30T02:22:22.678Z,1.53
2019-05-30T02:24:52.290Z,1.40
2019-05-30T02:27:21.895Z,1.30
2019-05-30T02:29:51.562Z,1.30
2019-05-30T02:32:21.148Z,1.27
2019-05-30T02:34:50.827Z,2.43
2019-05-30T02:37:20.417Z,1.30
2019-05-30T02:39:50.095Z,2.07
2019-05-30T02:42:19.647Z,1.17
2019-05-30T02:44:49.235Z,1.17
2019-05-30T02:47:22.346Z,2.33
2019-05-30T02:49:50.163Z,1.77
2019-05-30T02:52:19.739Z,1.30
2019-05-30T02:54:49.461Z,1.57
2019-05-30T02:57:19.165Z,2.00
2019-05-30T02:59:48.714Z,1.13
2019-05-30T03:02:18.340Z,1.33
2019-05-30T03:04:48.001Z,1.00
2019-05-30T03:07:19.159Z,1.00
2019-05-30T03:09:48.809Z,1.37
2019-05-30T03:12:18.477Z,1.20
2019-05-30T03:14:48.100Z,2.47
2019-05-30T03:17:17.691Z,1.90
2019-05-30T03:19:47.381Z,1.50
2019-05-30T03:22:17.012Z,2.13
2019-05-30T03:24:46.660Z,2.53
2019-05-30T03:27:16.326Z,2.30
2019-05-30T03:29:45.940Z,1.60
2019-05-30T03:33:00.907Z,1.30
2019-05-30T03:34:46.918Z,2.13
2019-05-30T03:37:26.809Z,2.20
2019-05-30T03:39:47.835Z,2.13
2019-05-30T03:42:17.424Z,1.60
2019-05-30T03:44:47.011Z,1.72
2019-05-30T03:47:16.593Z,1.90
2019-05-30T03:49:46.258Z,1.40
2019-05-30T03:52:17.190Z,2.00
2019-05-30T03:54:47.186Z,2.00
2019-05-30T03:57:25.231Z,5.13
2019-05-30T04:00:00.962Z,1.57
2019-05-30T04:03:01.455Z,1.70
2019-05-30T04:05:38.640Z,2.60
2019-05-30T04:08:09.983Z,1.80
2019-05-30T04:10:40.486Z,3.50
2019-05-30T04:13:33.032Z,4.20
2019-05-30T04:16:02.637Z,1.50
2019-05-30T04:18:32.264Z,3.30
2019-05-30T04:21:03.531Z,1.43
2019-05-30T04:23:33.116Z,2.67
2019-05-30T04:26:02.727Z,2.83
2019-05-30T04:28:32.329Z,2.43
2019-05-30T04:31:01.942Z,3.33
2019-05-30T04:33:33.674Z,2.27
2019-05-30T04:36:02.898Z,2.23
2019-05-30T04:38:32.570Z,2.50
2019-05-30T04:41:04.111Z,3.00
2019-05-30T04:43:35.364Z,2.13
2019-05-30T04:46:04.976Z,3.27
2019-05-30T04:48:34.589Z,4.67
2019-05-30T04:51:04.210Z,2.57
2019-05-30T04:53:33.851Z,2.70
2019-05-30T04:56:03.527Z,2.47
2019-05-30T04:58:33.141Z,3.07
2019-05-30T05:01:02.758Z,3.17
2019-05-30T05:03:45.373Z,3.63
2019-05-30T05:06:03.691Z,2.77
2019-05-30T05:08:33.279Z,2.20
2019-05-30T05:11:02.909Z,1.90
2019-05-30T05:13:32.457Z,4.27
2019-05-30T05:16:02.109Z,2.10
2019-05-30T05:18:33.334Z,2.47
2019-05-30T05:21:02.934Z,2.30
2019-05-30T05:23:32.543Z,1.97
2019-05-30T05:26:02.211Z,2.60
2019-05-30T05:28:31.845Z,2.20
2019-05-30T05:31:01.441Z,4.63
2019-05-30T05:33:31.035Z,2.77
2019-05-30T05:36:00.673Z,3.73
2019-05-30T05:38:30.290Z,2.87
2019-05-30T05:41:00.015Z,2.50
2019-05-30T05:43:29.632Z,3.07
2019-05-30T05:45:59.214Z,2.77
2019-05-30T05:48:28.923Z,4.03
2019-05-30T05:50:58.500Z,3.20
2019-05-30T05:53:29.061Z,2.43
2019-05-30T05:55:59.245Z,4.33
2019-05-30T05:58:29.348Z,2.53
2019-05-30T06:00:59.531Z,3.47
2019-05-30T06:03:29.125Z,4.23
2019-05-30T06:05:58.789Z,2.57
2019-05-30T06:08:28.410Z,2.50
2019-05-30T06:10:58.084Z,3.50
2019-05-30T06:13:28.974Z,2.37
2019-05-30T06:15:59.233Z,3.23
2019-05-30T06:18:28.862Z,3.30
2019-05-30T06:20:58.459Z,2.50
2019-05-30T06:23:30.482Z,2.80
2019-05-30T06:26:01.743Z,3.03
2019-05-30T06:28:37.548Z,4.50
2019-05-30T06:31:07.296Z,4.40
2019-05-30T06:33:36.968Z,2.57
2019-05-30T06:36:06.575Z,4.50
2019-05-30T06:38:36.310Z,4.00
2019-05-30T06:41:05.937Z,3.97
2019-05-30T06:43:35.690Z,4.03
2019-05-30T06:46:05.353Z,3.07
2019-05-30T06:48:35.012Z,4.67
2019-05-30T06:51:04.602Z,4.17
2019-05-30T06:53:34.301Z,4.83
2019-05-30T06:56:03.941Z,2.60
2019-05-30T06:58:47.424Z,3.40
2019-05-30T07:01:04.996Z,4.50
2019-05-30T07:03:34.678Z,4.90
2019-05-30T07:06:05.148Z,5.40
2019-05-30T07:08:35.675Z,3.43
2019-05-30T07:11:05.317Z,4.63
2019-05-30T07:13:35.340Z,3.47
2019-05-30T07:16:07.840Z,3.70
2019-05-30T07:18:39.144Z,3.47
2019-05-30T07:21:09.206Z,5.77
2019-05-30T07:23:39.709Z,4.43
2019-05-30T07:26:10.146Z,4.57
2019-05-30T07:28:39.761Z,5.17
2019-05-30T07:31:09.335Z,3.30
2019-05-30T07:33:38.990Z,4.60
2019-05-30T07:36:08.705Z,5.80
2019-05-30T07:38:38.381Z,6.07
2019-05-30T07:41:08.189Z,3.97
2019-05-30T07:43:37.862Z,4.77
2019-05-30T07:46:07.591Z,4.57
2019-05-30T07:48:38.480Z,3.93
2019-05-30T07:51:08.763Z,4.60
2019-05-30T07:53:39.178Z,4.33
2019-05-30T07:56:09.395Z,3.87
2019-05-30T07:58:39.159Z,6.03
2019-05-30T08:01:10.466Z,6.27
2019-05-30T08:03:40.211Z,5.77
2019-05-30T08:06:10.838Z,4.40
2019-05-30T08:08:40.573Z,4.17
2019-05-30T08:11:10.497Z,3.87
2019-05-30T08:13:41.958Z,5.50
2019-05-30T08:16:11.555Z,5.37
2019-05-30T08:18:41.187Z,4.83
2019-05-30T08:21:10.875Z,5.63
2019-05-30T08:23:40.537Z,4.53
2019-05-30T08:26:10.225Z,3.77
2019-05-30T08:28:42.576Z,5.20
2019-05-30T08:31:11.604Z,3.20
2019-05-30T08:33:41.410Z,5.93
2019-05-30T08:36:11.189Z,4.47
2019-05-30T08:38:41.912Z,4.07
2019-05-30T08:41:11.859Z,5.57
2019-05-30T08:43:43.121Z,3.43
2019-05-30T08:46:12.805Z,3.43
2019-05-30T08:48:42.553Z,4.17
2019-05-30T08:51:12.259Z,5.27
2019-05-30T08:53:41.970Z,6.57
2019-05-30T08:56:11.946Z,4.00
2019-05-30T08:58:41.657Z,6.43
2019-05-30T09:01:11.388Z,4.60
2019-05-30T09:03:42.156Z,6.57
2019-05-30T09:06:12.983Z,6.90
2019-05-30T09:08:44.133Z,5.07
2019-05-30T09:11:14.298Z,4.13
2019-05-30T09:13:44.590Z,6.57
2019-05-30T09:16:15.051Z,5.63
2019-05-30T09:18:45.295Z,5.23
2019-05-30T09:21:15.521Z,6.57
2019-05-30T09:23:46.203Z,5.30
2019-05-30T09:26:16.532Z,3.60
2019-05-30T09:28:46.355Z,4.50
2019-05-30T09:31:17.748Z,4.67
2019-05-30T09:33:48.618Z,3.73
2019-05-30T09:36:18.922Z,4.77
2019-05-30T09:38:49.677Z,5.43
2019-05-30T09:41:19.544Z,5.13
2019-05-30T09:43:50.237Z,5.43
2019-05-30T09:46:20.812Z,4.83
2019-05-30T09:48:51.769Z,3.87
2019-05-30T09:51:22.070Z,5.10
2019-05-30T09:53:52.829Z,6.47
2019-05-30T09:56:23.387Z,4.17
2019-05-30T09:58:53.247Z,4.90
2019-05-30T10:01:22.892Z,5.20
2019-05-30T10:03:52.594Z,7.07
2019-05-30T10:06:29.411Z,4.73
2019-05-30T10:08:53.831Z,4.50
2019-05-30T10:11:23.503Z,4.93
2019-05-30T10:13:53.177Z,5.27
2019-05-30T10:16:22.919Z,6.33
2019-05-30T10:18:52.876Z,5.63
2019-05-30T10:21:23.113Z,7.37
2019-05-30T10:23:53.715Z,4.20
2019-05-30T10:26:23.580Z,5.87
2019-05-30T10:28:53.411Z,4.70
2019-05-30T10:31:23.063Z,6.03
2019-05-30T10:33:53.119Z,4.63
2019-05-30T10:36:23.487Z,7.03
2019-05-30T10:38:53.958Z,5.57
2019-05-30T10:41:24.040Z,6.77
2019-05-30T10:43:55.427Z,5.47
2019-05-30T10:46:25.137Z,4.20
2019-05-30T10:48:54.893Z,4.27
2019-05-30T10:51:24.530Z,6.87
2019-05-30T10:53:55.668Z,5.67
2019-05-30T10:56:25.436Z,4.17
2019-05-30T10:58:55.119Z,4.33
2019-05-30T11:01:24.855Z,6.77
2019-05-30T11:03:54.830Z,4.43
2019-05-30T11:06:35.206Z,5.87
2019-05-30T11:09:07.290Z,5.43
2019-05-30T11:11:36.894Z,3.80
2019-05-30T11:14:06.518Z,4.57
2019-05-30T11:16:36.087Z,4.87
2019-05-30T11:19:07.586Z,3.97
2019-05-30T11:21:37.017Z,5.53
2019-05-30T11:24:06.598Z,7.80
2019-05-30T11:26:36.274Z,4.40
2019-05-30T11:29:05.981Z,5.33
2019-05-30T11:31:35.853Z,5.17
2019-05-30T11:34:05.789Z,4.23
2019-05-30T11:36:35.522Z,6.00
2019-05-30T11:39:06.323Z,4.90
2019-05-30T11:41:36.298Z,5.17
2019-05-30T11:44:06.062Z,5.60
2019-05-30T11:46:35.689Z,3.87
2019-05-30T11:49:05.333Z,3.80
2019-05-30T11:51:35.080Z,4.40
2019-05-30T11:54:04.656Z,4.93
2019-05-30T11:56:34.305Z,4.70
2019-05-30T11:59:03.991Z,5.40
2019-05-30T12:01:33.682Z,4.07
2019-05-30T12:04:03.612Z,3.20
2019-05-30T12:06:33.340Z,3.67
2019-05-30T12:09:04.473Z,4.13
2019-05-30T12:11:34.743Z,3.90
2019-05-30T12:14:04.723Z,4.83
2019-05-30T12:16:35.125Z,4.60
2019-05-30T12:19:06.316Z,4.53
2019-05-30T12:21:36.953Z,4.30
2019-05-30T12:24:07.326Z,6.83
2019-05-30T12:26:37.292Z,5.77
2019-05-30T12:29:08.119Z,5.33
2019-05-30T12:31:38.947Z,5.47
2019-05-30T12:34:10.212Z,5.47
2019-05-30T12:36:41.148Z,4.47
2019-05-30T12:39:12.253Z,7.03
2019-05-30T12:41:42.967Z,5.63
2019-05-30T12:44:13.442Z,3.47
2019-05-30T12:46:44.050Z,4.33
2019-05-30T12:49:14.448Z,4.70
2019-05-30T12:51:45.026Z,4.60
2019-05-30T12:54:15.264Z,4.20
2019-05-30T12:56:45.609Z,3.93
2019-05-30T12:59:15.952Z,5.10
2019-05-30T13:01:46.206Z,6.27
2019-05-30T13:04:16.634Z,5.20
2019-05-30T13:06:47.196Z,3.83
2019-05-30T13:09:19.556Z,6.17
2019-05-30T13:11:50.201Z,5.77
2019-05-30T13:14:20.789Z,5.10
2019-05-30T13:16:51.029Z,5.17
2019-05-30T13:19:21.336Z,4.10
2019-05-30T13:21:53.778Z,4.07
2019-05-30T13:24:24.158Z,4.10
2019-05-30T13:26:55.628Z,5.23
2019-05-30T13:29:26.667Z,5.73
2019-05-30T13:31:58.396Z,4.57
2019-05-30T13:34:29.328Z,4.07
2019-05-30T13:37:00.952Z,4.60
2019-05-30T13:39:32.138Z,6.67
2019-05-30T13:42:03.622Z,5.47
2019-05-30T13:44:35.111Z,5.90
2019-05-30T13:47:06.691Z,5.53
2019-05-30T13:49:38.069Z,4.80
2019-05-30T13:52:09.137Z,6.80
2019-05-30T13:54:40.584Z,10.77
2019-05-30T13:57:11.459Z,4.10
2019-05-30T13:59:42.432Z,3.97
2019-05-30T14:02:13.684Z,4.37
2019-05-30T14:04:44.431Z,5.27
2019-05-30T14:07:15.074Z,4.70
2019-05-30T14:09:46.278Z,5.20
2019-05-30T14:12:17.220Z,4.57
2019-05-30T14:14:48.306Z,6.53
2019-05-30T14:17:20.800Z,4.77
2019-05-30T14:19:50.527Z,7.50
2019-05-30T14:22:22.293Z,6.17
2019-05-30T14:24:53.644Z,5.60
2019-05-30T14:27:24.917Z,4.90
2019-05-30T14:29:56.001Z,5.10
2019-05-30T14:32:27.698Z,6.07
2019-05-30T14:34:58.745Z,5.20
2019-05-30T14:37:29.942Z,5.17
2019-05-30T14:40:02.617Z,4.90
2019-05-30T14:42:34.199Z,6.47
2019-05-30T14:45:06.399Z,4.43
2019-05-30T14:47:39.082Z,4.40
2019-05-30T14:50:11.241Z,4.43
2019-05-30T14:52:43.072Z,4.27
2019-05-30T14:55:14.419Z,5.83
2019-05-30T14:57:45.712Z,3.50
2019-05-30T15:00:18.012Z,5.20
2019-05-30T15:02:49.145Z,3.53
2019-05-30T15:05:21.377Z,4.93
2019-05-30T15:07:54.268Z,5.33
2019-05-30T15:10:30.230Z,6.03
2019-05-30T15:13:02.892Z,6.57
2019-05-30T15:15:35.570Z,7.17
2019-05-30T15:18:09.161Z,12.47
2019-05-30T15:20:40.071Z,9.53
2019-05-30T15:23:13.828Z,12.50
2019-05-30T15:25:44.708Z,9.03
2019-05-30T15:28:18.052Z,7.77
2019-05-30T15:30:51.285Z,7.57
2019-05-30T15:33:23.239Z,11.20
2019-05-30T15:35:56.365Z,5.50
2019-05-30T15:38:28.917Z,10.70
2019-05-30T15:41:01.671Z,6.70
2019-05-30T15:43:33.532Z,14.60
2019-05-30T15:46:05.551Z,8.40
2019-05-30T15:48:40.732Z,8.77
2019-05-30T15:51:12.898Z,9.37
2019-05-30T15:53:45.917Z,5.10
2019-05-30T15:56:19.411Z,5.80
2019-05-30T15:58:51.609Z,8.67
2019-05-30T16:01:23.211Z,6.40
2019-05-30T16:03:54.684Z,10.17
2019-05-30T16:06:25.871Z,5.57
2019-05-30T16:08:56.510Z,7.03
2019-05-30T16:11:28.257Z,4.47
2019-05-30T16:13:59.764Z,9.30
2019-05-30T16:16:39.341Z,8.37
2019-05-30T16:19:15.704Z,3.83
2019-05-30T16:21:37.977Z,6.50
2019-05-30T16:24:09.542Z,8.43
2019-05-30T16:26:42.005Z,6.40
2019-05-30T16:29:15.636Z,7.97
2019-05-30T16:31:47.618Z,8.50
2019-05-30T16:34:20.530Z,5.07
2019-05-30T16:36:53.943Z,3.93
2019-05-30T16:39:28.113Z,6.17
2019-05-30T16:41:59.961Z,5.43
2019-05-30T16:44:32.313Z,8.83
2019-05-30T16:47:04.889Z,4.30
2019-05-30T16:49:37.294Z,5.83
2019-05-30T16:52:09.170Z,6.80
2019-05-30T16:54:41.362Z,5.67
2019-05-30T16:57:14.362Z,5.97
2019-05-30T16:59:47.763Z,4.93
2019-05-30T17:02:20.836Z,2.77
2019-05-30T17:04:55.066Z,5.87
2019-05-30T17:07:27.787Z,4.80
2019-05-30T17:10:19.281Z,3.53
2019-05-30T17:12:40.625Z,5.83
2019-05-30T17:15:13.713Z,3.83
2019-05-30T17:17:47.593Z,5.40
2019-05-30T17:20:20.695Z,4.83
2019-05-30T17:22:52.857Z,4.67
2019-05-30T17:25:27.499Z,3.70
2019-05-30T17:28:00.936Z,7.47
2019-05-30T17:30:34.504Z,5.43
2019-05-30T17:33:07.534Z,7.20
2019-05-30T17:35:40.576Z,7.90
2019-05-30T17:38:13.496Z,7.67
2019-05-30T17:40:49.618Z,8.10
2019-05-30T17:43:22.869Z,5.10
2019-05-30T17:45:55.019Z,5.37
2019-05-30T17:48:29.661Z,8.93
2019-05-30T17:51:03.495Z,7.67
2019-05-30T17:53:35.959Z,7.23
2019-05-30T17:56:09.596Z,8.23
2019-05-30T17:58:42.653Z,8.33
2019-05-30T18:01:15.360Z,9.30
2019-05-30T18:03:49.192Z,10.97
2019-05-30T18:06:22.283Z,8.10
2019-05-30T18:08:56.071Z,8.93
2019-05-30T18:11:28.814Z,6.63
2019-05-30T18:14:01.162Z,4.30
2019-05-30T18:16:33.586Z,7.10
2019-05-30T18:19:07.295Z,11.50
2019-05-30T18:21:38.818Z,7.07
2019-05-30T18:24:10.897Z,7.13
2019-05-30T18:26:43.258Z,6.17
2019-05-30T18:29:14.582Z,4.97
2019-05-30T18:31:46.049Z,4.23
2019-05-30T18:34:17.523Z,8.60
2019-05-30T18:36:48.805Z,6.57
2019-05-30T18:39:19.502Z,5.40
2019-05-30T18:41:50.218Z,7.20
2019-05-30T18:44:22.753Z,6.23
2019-05-30T18:46:54.413Z,9.37
2019-05-30T18:49:25.301Z,8.87
2019-05-30T18:51:56.877Z,4.37
2019-05-30T18:54:28.523Z,5.30
2019-05-30T18:57:00.755Z,6.03
2019-05-30T18:59:33.167Z,7.53
2019-05-30T19:02:04.654Z,9.47
2019-05-30T19:04:35.844Z,5.57
2019-05-30T19:07:07.235Z,4.70
2019-05-30T19:09:38.035Z,6.43
2019-05-30T19:12:08.358Z,8.47
2019-05-30T19:14:39.265Z,7.37
2019-05-30T19:17:09.935Z,6.10
2019-05-30T19:19:40.483Z,4.83
2019-05-30T19:22:11.082Z,4.43
2019-05-30T19:24:42.275Z,3.67
2019-05-30T19:27:13.552Z,5.90
2019-05-30T19:29:45.825Z,6.30
2019-05-30T19:32:16.703Z,2.87
2019-05-30T19:34:47.255Z,5.57
2019-05-30T19:37:17.770Z,5.33
2019-05-30T19:39:48.446Z,5.33
2019-05-30T19:42:19.697Z,4.53
2019-05-30T19:44:50.715Z,5.00
2019-05-30T19:47:21.929Z,3.60
2019-05-30T19:49:52.755Z,6.17
2019-05-30T19:52:23.833Z,4.13
2019-05-30T19:54:54.526Z,4.57
2019-05-30T19:57:25.003Z,4.53
2019-05-30T19:59:57.441Z,4.37
2019-05-30T20:02:27.922Z,5.03
2019-05-30T20:04:58.382Z,6.63
2019-05-30T20:07:28.862Z,5.63
2019-05-30T20:10:01.767Z,5.97
2019-05-30T20:12:32.617Z,4.07
2019-05-30T20:15:03.756Z,3.97
2019-05-30T20:17:35.422Z,4.57
2019-05-30T20:20:06.826Z,7.23
2019-05-30T20:22:38.116Z,4.37
2019-05-30T20:25:08.786Z,4.93
2019-05-30T20:27:39.068Z,4.73
2019-05-30T20:30:09.159Z,6.50
2019-05-30T20:32:40.726Z,6.27
2019-05-30T20:35:11.392Z,4.93
2019-05-30T20:37:41.360Z,6.77
2019-05-30T20:40:11.314Z,4.70
2019-05-30T20:42:41.189Z,6.57
2019-05-30T20:45:11.448Z,3.67
2019-05-30T20:47:44.079Z,4.50
2019-05-30T20:50:15.040Z,2.80
2019-05-30T20:52:45.682Z,8.20
2019-05-30T20:55:16.292Z,8.83
2019-05-30T20:57:46.886Z,13.50
2019-05-30T21:00:37.758Z,5.07
2019-05-30T21:03:08.978Z,7.37
2019-05-30T21:05:39.863Z,12.50
2019-05-30T21:08:12.072Z,7.63
2019-05-30T21:10:43.304Z,4.33
2019-05-30T21:13:14.983Z,5.20
2019-05-30T21:15:45.995Z,10.53
2019-05-30T21:18:18.184Z,15.50
2019-05-30T21:20:50.594Z,3.97
2019-05-30T21:23:23.879Z,10.33
2019-05-30T21:25:53.738Z,5.67
2019-05-30T21:28:23.425Z,6.40
2019-05-30T21:30:53.049Z,6.53
2019-05-30T21:33:22.717Z,8.60
2019-05-30T21:35:52.388Z,4.13
2019-05-30T21:38:22.043Z,6.80
2019-05-30T21:40:51.685Z,5.07
2019-05-30T21:43:21.693Z,4.00
2019-05-30T21:45:52.720Z,4.67
2019-05-30T21:48:23.670Z,8.67
2019-05-30T21:50:53.500Z,7.93
2019-05-30T21:53:23.135Z,4.87
2019-05-30T21:55:52.732Z,5.03
2019-05-30T21:58:22.463Z,4.73
2019-05-30T22:01:35.960Z,4.93
2019-05-30T22:04:06.305Z,9.40
2019-05-30T22:06:36.071Z,9.63
2019-05-30T22:09:09.982Z,4.47
2019-05-30T22:11:39.569Z,6.57
2019-05-30T22:14:09.199Z,6.47
2019-05-30T22:16:38.981Z,8.10
2019-05-30T22:19:08.753Z,5.87
2019-05-30T22:21:38.377Z,2.90
2019-05-30T22:24:07.997Z,3.37
2019-05-30T22:26:37.629Z,4.47
2019-05-30T22:29:07.214Z,5.43
2019-05-30T22:31:36.837Z,4.77
2019-05-30T22:34:06.466Z,5.37
2019-05-30T22:36:36.128Z,4.73
2019-05-30T22:39:08.883Z,6.10
2019-05-30T22:41:38.359Z,7.77
2019-05-30T22:44:08.015Z,6.20
2019-05-30T22:46:37.656Z,6.40
2019-05-30T22:49:07.293Z,5.43
2019-05-30T22:51:36.909Z,4.10
2019-05-30T22:54:06.549Z,4.83
2019-05-30T22:56:36.169Z,5.53
2019-05-30T22:59:05.791Z,5.80
2019-05-30T23:01:35.499Z,5.00
2019-05-30T23:04:05.161Z,5.50
2019-05-30T23:06:34.793Z,6.33
2019-05-30T23:09:06.283Z,6.67
2019-05-30T23:11:35.874Z,5.03
2019-05-30T23:14:05.519Z,4.90
2019-05-30T23:16:36.739Z,5.77
2019-05-30T23:19:06.367Z,5.10
2019-05-30T23:21:35.983Z,4.93
2019-05-30T23:24:05.650Z,4.40
2019-05-30T23:26:35.265Z,6.63
2019-05-30T23:29:04.875Z,6.33
2019-05-30T23:31:34.508Z,6.37
2019-05-30T23:34:04.158Z,5.03
2019-05-30T23:36:33.821Z,6.33
2019-05-30T23:39:04.494Z,4.10
2019-05-30T23:41:35.914Z,4.63
2019-05-30T23:44:11.133Z,4.20
2019-05-30T23:46:36.841Z,5.07
2019-05-30T23:49:06.454Z,5.57
2019-05-30T23:51:36.110Z,5.67
2019-05-30T23:54:05.722Z,5.63
2019-05-30T23:56:35.312Z,5.73
2019-05-30T23:59:06.526Z,4.77
